createdAt,value
2018-02-25T00:00:58.293Z,0
2018-02-25T00:01:56.874Z,0
2018-02-25T00:02:56.804Z,0
2018-02-25T00:03:56.309Z,0
2018-02-25T00:04:56.940Z,0
2018-02-25T00:05:56.968Z,0
2018-02-25T00:06:56.970Z,0
2018-02-25T00:07:56.790Z,0
2018-02-25T00:08:57.077Z,0
2018-02-25T00:09:56.799Z,0
2018-02-25T00:10:57.842Z,0
2018-02-25T00:11:56.851Z,0
2018-02-25T00:12:57.663Z,0
2018-02-25T00:13:57.544Z,0
2018-02-25T00:14:57.549Z,0
2018-02-25T00:15:57.631Z,0
2018-02-25T00:16:58.045Z,0
2018-02-25T00:17:57.652Z,0
2018-02-25T00:18:57.496Z,0
2018-02-25T00:19:59.077Z,0
2018-02-25T00:20:58.195Z,0
2018-02-25T00:21:59.146Z,0
2018-02-25T00:22:58.650Z,0
2018-02-25T00:23:59.440Z,0
2018-02-25T00:25:00.627Z,0
2018-02-25T00:25:59.154Z,0
2018-02-25T00:26:59.310Z,0
2018-02-25T00:27:59.801Z,0
2018-02-25T00:29:00.126Z,0
2018-02-25T00:29:59.036Z,0
2018-02-25T00:31:01.216Z,0
2018-02-25T00:32:00.575Z,0
2018-02-25T00:33:01.431Z,0
2018-02-25T00:34:00.948Z,0
2018-02-25T00:35:01.516Z,0
2018-02-25T00:36:01.521Z,0
2018-02-25T00:37:00.321Z,0
2018-02-25T00:37:59.688Z,0
2018-02-25T00:39:01.345Z,0
2018-02-25T00:40:01.338Z,0
2018-02-25T00:41:01.343Z,0
2018-02-25T00:42:01.587Z,0
2018-02-25T00:43:02.027Z,0
2018-02-25T00:44:01.692Z,0
2018-02-25T00:45:02.127Z,0
2018-02-25T00:46:02.145Z,0
2018-02-25T00:47:01.824Z,0
2018-02-25T00:48:01.498Z,0
2018-02-25T00:49:01.212Z,0
2018-02-25T00:50:02.070Z,0
2018-02-25T00:50:59.958Z,0
2018-02-25T00:52:02.101Z,0
2018-02-25T00:53:00.836Z,0
2018-02-25T00:54:00.615Z,0
2018-02-25T00:55:00.324Z,0
2018-02-25T00:56:00.877Z,0
2018-02-25T00:57:01.429Z,0
2018-02-25T00:58:01.979Z,0
2018-02-25T00:59:01.273Z,0
2018-02-25T01:00:01.618Z,0
2018-02-25T01:01:01.007Z,0
2018-02-25T01:02:01.372Z,0
2018-02-25T01:03:00.705Z,0
2018-02-25T01:04:00.893Z,0
2018-02-25T01:05:02.361Z,0
2018-02-25T01:06:02.297Z,0
2018-02-25T01:07:02.010Z,0
2018-02-25T01:08:01.643Z,0
2018-02-25T01:09:01.578Z,0
2018-02-25T01:10:01.825Z,0
2018-02-25T01:11:01.839Z,0
2018-02-25T01:12:02.091Z,0
2018-02-25T01:13:02.352Z,0
2018-02-25T01:14:02.326Z,0
2018-02-25T01:15:02.174Z,0
2018-02-25T01:16:02.188Z,0
2018-02-25T01:17:02.471Z,0
2018-02-25T01:18:02.864Z,0
2018-02-25T01:19:02.654Z,0
2018-02-25T01:20:03.038Z,0
2018-02-25T01:21:02.570Z,0
2018-02-25T01:22:02.292Z,0
2018-02-25T01:23:02.396Z,0
2018-02-25T01:24:02.346Z,0
2018-02-25T01:25:01.784Z,0
2018-02-25T01:26:02.578Z,0
2018-02-25T01:27:02.270Z,0
2018-02-25T01:28:03.060Z,0
2018-02-25T01:29:03.054Z,0
2018-02-25T01:30:03.136Z,0
2018-02-25T01:31:03.667Z,0
2018-02-25T01:32:02.991Z,0
2018-02-25T01:33:03.282Z,0
2018-02-25T01:34:02.967Z,0
2018-02-25T01:35:03.157Z,0
2018-02-25T01:36:03.231Z,0
2018-02-25T01:37:03.121Z,0
2018-02-25T01:38:03.140Z,0
2018-02-25T01:39:03.675Z,0
2018-02-25T01:40:03.371Z,0
2018-02-25T01:41:02.887Z,0
2018-02-25T01:42:04.115Z,0
2018-02-25T01:43:03.780Z,0
2018-02-25T01:44:04.001Z,0
2018-02-25T01:45:03.758Z,0
2018-02-25T01:46:03.860Z,0
2018-02-25T01:47:03.556Z,0
2018-02-25T01:48:04.074Z,0
2018-02-25T01:49:03.751Z,0
2018-02-25T01:50:04.743Z,0
2018-02-25T01:51:04.392Z,0
2018-02-25T01:52:05.004Z,0
2018-02-25T01:53:04.941Z,0
2018-02-25T01:54:04.368Z,0
2018-02-25T01:55:04.763Z,0
2018-02-25T01:56:05.811Z,0
2018-02-25T01:57:05.433Z,0
2018-02-25T01:58:05.386Z,0
2018-02-25T01:59:05.297Z,0
2018-02-25T02:00:24.872Z,0
2018-02-25T02:01:06.275Z,0
2018-02-25T02:02:06.511Z,0
2018-02-25T02:03:06.496Z,0
2018-02-25T02:04:05.814Z,0
2018-02-25T02:05:05.971Z,0
2018-02-25T02:06:05.502Z,0
2018-02-25T02:07:05.988Z,0
2018-02-25T02:08:05.638Z,0
2018-02-25T02:09:06.575Z,0
2018-02-25T02:10:06.448Z,0
2018-02-25T02:11:07.028Z,0
2018-02-25T02:12:06.844Z,0
2018-02-25T02:13:06.188Z,0
2018-02-25T02:14:06.431Z,0
2018-02-25T02:15:06.210Z,0
2018-02-25T02:16:06.662Z,0
2018-02-25T02:17:07.202Z,0
2018-02-25T02:18:08.158Z,0
2018-02-25T02:19:06.857Z,0
2018-02-25T02:20:07.282Z,0
2018-02-25T02:21:07.246Z,0
2018-02-25T02:22:07.281Z,0
2018-02-25T02:23:07.096Z,0
2018-02-25T02:24:07.824Z,0
2018-02-25T02:25:07.794Z,0
2018-02-25T02:26:07.802Z,0
2018-02-25T02:27:07.802Z,0
2018-02-25T02:28:08.229Z,0
2018-02-25T02:29:08.532Z,0
2018-02-25T02:30:07.929Z,0
2018-02-25T02:31:08.115Z,0
2018-02-25T02:32:08.960Z,0
2018-02-25T02:33:09.398Z,0
2018-02-25T02:34:09.809Z,0
2018-02-25T02:35:10.215Z,0
2018-02-25T02:36:09.297Z,0
2018-02-25T02:37:09.691Z,0
2018-02-25T02:38:10.310Z,0
2018-02-25T02:39:09.906Z,0
2018-02-25T02:40:10.479Z,0
2018-02-25T02:41:10.192Z,0
2018-02-25T02:42:10.465Z,0
2018-02-25T02:43:10.502Z,0
2018-02-25T02:44:10.791Z,0
2018-02-25T02:45:11.034Z,0
2018-02-25T02:46:11.078Z,0
2018-02-25T02:47:11.112Z,0
2018-02-25T02:48:10.851Z,0
2018-02-25T02:49:11.158Z,0
2018-02-25T02:50:11.314Z,0
2018-02-25T02:51:12.379Z,0
2018-02-25T02:52:11.436Z,0
2018-02-25T02:53:12.007Z,0
2018-02-25T02:54:11.988Z,0
2018-02-25T02:55:12.269Z,0
2018-02-25T02:56:12.195Z,0
2018-02-25T02:57:12.215Z,0
2018-02-25T02:58:11.717Z,0
2018-02-25T02:59:12.019Z,0
2018-02-25T03:00:18.917Z,0
2018-02-25T03:01:18.783Z,0
2018-02-25T03:02:19.025Z,0
2018-02-25T03:03:18.826Z,0
2018-02-25T03:04:19.837Z,0
2018-02-25T03:05:18.508Z,0
2018-02-25T03:06:19.106Z,0
2018-02-25T03:07:18.843Z,0
2018-02-25T03:08:20.123Z,0
2018-02-25T03:09:19.768Z,0
2018-02-25T03:10:19.160Z,0
2018-02-25T03:11:19.711Z,0
2018-02-25T03:12:19.427Z,0
2018-02-25T03:13:19.796Z,0
2018-02-25T03:14:19.703Z,0
2018-02-25T03:15:20.386Z,0
2018-02-25T03:16:20.451Z,0
2018-02-25T03:17:20.150Z,0
2018-02-25T03:18:20.238Z,0
2018-02-25T03:19:20.612Z,0
2018-02-25T03:20:20.449Z,0
2018-02-25T03:21:20.988Z,0
2018-02-25T03:22:20.969Z,0
2018-02-25T03:23:20.755Z,0
2018-02-25T03:24:20.811Z,0
2018-02-25T03:25:21.287Z,0
2018-02-25T03:26:21.485Z,0
2018-02-25T03:27:21.496Z,0
2018-02-25T03:28:21.434Z,0
2018-02-25T03:29:21.649Z,0
2018-02-25T03:30:21.737Z,0
2018-02-25T03:31:21.641Z,0
2018-02-25T03:32:22.002Z,0
2018-02-25T03:33:22.140Z,0
2018-02-25T03:34:22.038Z,0
2018-02-25T03:35:22.772Z,0
2018-02-25T03:36:22.538Z,0
2018-02-25T03:37:22.962Z,0
2018-02-25T03:38:23.375Z,0
2018-02-25T03:39:23.349Z,0
2018-02-25T03:40:23.370Z,0
2018-02-25T03:41:23.777Z,0
2018-02-25T03:42:23.506Z,0
2018-02-25T03:43:23.675Z,0
2018-02-25T03:44:24.230Z,0
2018-02-25T03:45:24.102Z,0
2018-02-25T03:46:24.248Z,0
2018-02-25T03:47:24.416Z,0
2018-02-25T03:48:24.410Z,0
2018-02-25T03:49:25.079Z,0
2018-02-25T03:50:24.832Z,0
2018-02-25T03:51:25.032Z,0
2018-02-25T03:52:25.651Z,0
2018-02-25T03:53:25.531Z,0
2018-02-25T03:54:25.451Z,0
2018-02-25T03:55:25.411Z,0
2018-02-25T03:56:26.634Z,0
2018-02-25T03:57:26.496Z,0
2018-02-25T03:58:26.122Z,0
2018-02-25T03:59:26.654Z,0
2018-02-25T04:00:42.817Z,0
2018-02-25T04:01:43.346Z,0
2018-02-25T04:02:42.877Z,0
2018-02-25T04:03:42.640Z,0
2018-02-25T04:04:42.948Z,0
2018-02-25T04:05:42.942Z,0
2018-02-25T04:06:43.407Z,0
2018-02-25T04:07:43.427Z,0
2018-02-25T04:08:43.750Z,0
2018-02-25T04:09:43.521Z,0
2018-02-25T04:10:44.099Z,0
2018-02-25T04:11:44.502Z,0
2018-02-25T04:12:44.894Z,0
2018-02-25T04:13:44.605Z,0
2018-02-25T04:14:45.623Z,0
2018-02-25T04:15:44.572Z,0
2018-02-25T04:16:44.730Z,0
2018-02-25T04:17:45.079Z,0
2018-02-25T04:18:45.069Z,0
2018-02-25T04:19:45.090Z,0
2018-02-25T04:20:45.148Z,0
2018-02-25T04:21:44.611Z,0
2018-02-25T04:22:44.977Z,0
2018-02-25T04:23:45.163Z,0
2018-02-25T04:24:45.054Z,0
2018-02-25T04:25:47.219Z,0
2018-02-25T04:26:45.549Z,0
2018-02-25T04:27:46.228Z,0
2018-02-25T04:28:45.992Z,0
2018-02-25T04:29:46.597Z,0
2018-02-25T04:30:46.514Z,0
2018-02-25T04:31:46.676Z,0
2018-02-25T04:32:46.843Z,0
2018-02-25T04:33:47.200Z,0
2018-02-25T04:34:47.508Z,0
2018-02-25T04:35:47.207Z,0
2018-02-25T04:36:47.566Z,0
2018-02-25T04:37:47.515Z,0
2018-02-25T04:38:47.544Z,0
2018-02-25T04:39:48.247Z,0
2018-02-25T04:40:47.991Z,0
2018-02-25T04:41:48.684Z,0
2018-02-25T04:42:48.686Z,0
2018-02-25T04:43:48.275Z,0
2018-02-25T04:44:48.442Z,0
2018-02-25T04:45:48.900Z,0
2018-02-25T04:46:49.250Z,0
2018-02-25T04:47:48.701Z,0
2018-02-25T04:48:49.144Z,0
2018-02-25T04:49:49.673Z,0
2018-02-25T04:50:50.043Z,0
2018-02-25T04:51:50.002Z,0
2018-02-25T04:52:49.412Z,0
2018-02-25T04:53:49.191Z,0
2018-02-25T04:54:49.869Z,0
2018-02-25T04:55:49.596Z,0
2018-02-25T04:56:50.344Z,0
2018-02-25T04:57:50.316Z,0
2018-02-25T04:58:50.426Z,0
2018-02-25T04:59:50.491Z,0
2018-02-25T05:00:50.501Z,0
2018-02-25T05:01:49.726Z,0
2018-02-25T05:02:50.485Z,0
2018-02-25T05:03:50.783Z,0
2018-02-25T05:04:50.462Z,0
2018-02-25T05:05:51.172Z,0
2018-02-25T05:06:50.490Z,0
2018-02-25T05:07:50.222Z,0
2018-02-25T05:08:50.281Z,0
2018-02-25T05:09:50.745Z,0
2018-02-25T05:10:51.175Z,0
2018-02-25T05:11:50.618Z,0
2018-02-25T05:12:51.578Z,0
2018-02-25T05:13:51.803Z,0
2018-02-25T05:14:51.181Z,0
2018-02-25T05:15:51.098Z,0
2018-02-25T05:16:51.743Z,0
2018-02-25T05:17:51.510Z,0
2018-02-25T05:18:51.428Z,0
2018-02-25T05:19:51.478Z,0
2018-02-25T05:20:51.402Z,0
2018-02-25T05:21:51.824Z,0
2018-02-25T05:22:51.975Z,0
2018-02-25T05:23:52.394Z,0
2018-02-25T05:24:52.506Z,0
2018-02-25T05:25:53.156Z,0
2018-02-25T05:26:53.564Z,0
2018-02-25T05:27:53.943Z,0
2018-02-25T05:28:53.164Z,0
2018-02-25T05:29:54.006Z,0
2018-02-25T05:30:54.388Z,0
2018-02-25T05:31:53.428Z,4
2018-02-25T05:32:54.010Z,0
2018-02-25T05:33:53.957Z,0
2018-02-25T05:34:54.613Z,4
2018-02-25T05:35:55.104Z,4
2018-02-25T05:36:55.281Z,4
2018-02-25T05:37:54.686Z,4
2018-02-25T05:38:54.955Z,4
2018-02-25T05:39:55.188Z,4
2018-02-25T05:40:55.030Z,4
2018-02-25T05:41:55.570Z,8
2018-02-25T05:42:55.979Z,12
2018-02-25T05:43:56.168Z,12
2018-02-25T05:44:56.133Z,12
2018-02-25T05:45:56.267Z,12
2018-02-25T05:46:55.601Z,16
2018-02-25T05:47:56.221Z,20
2018-02-25T05:48:55.948Z,20
2018-02-25T05:49:55.905Z,24
2018-02-25T05:50:56.057Z,28
2018-02-25T05:51:56.687Z,36
2018-02-25T05:52:56.617Z,40
2018-02-25T05:53:56.811Z,44
2018-02-25T05:54:57.202Z,52
2018-02-25T05:55:57.357Z,56
2018-02-25T05:56:57.104Z,64
2018-02-25T05:57:57.488Z,72
2018-02-25T05:58:58.138Z,80
2018-02-25T05:59:58.243Z,88
2018-02-25T06:00:57.901Z,100
2018-02-25T06:01:58.032Z,108
2018-02-25T06:02:57.906Z,124
2018-02-25T06:03:58.237Z,136
2018-02-25T06:04:58.407Z,148
2018-02-25T06:05:58.806Z,160
2018-02-25T06:06:59.386Z,176
2018-02-25T06:07:58.386Z,192
2018-02-25T06:08:58.831Z,204
2018-02-25T06:09:59.038Z,224
2018-02-25T06:10:58.866Z,240
2018-02-25T06:11:59.989Z,256
2018-02-25T06:12:59.854Z,276
2018-02-25T06:13:59.871Z,296
2018-02-25T06:14:59.663Z,308
2018-02-25T06:15:59.844Z,332
2018-02-25T06:16:59.521Z,352
2018-02-25T06:17:59.274Z,372
2018-02-25T06:18:59.154Z,392
2018-02-25T06:19:59.425Z,416
2018-02-25T06:20:59.555Z,436
2018-02-25T06:22:00.434Z,456
2018-02-25T06:23:00.184Z,480
2018-02-25T06:24:00.223Z,500
2018-02-25T06:25:00.511Z,524
2018-02-25T06:26:00.613Z,548
2018-02-25T06:27:00.147Z,568
2018-02-25T06:28:00.518Z,592
2018-02-25T06:29:00.765Z,612
2018-02-25T06:30:00.948Z,636
2018-02-25T06:31:00.540Z,656
2018-02-25T06:32:01.227Z,680
2018-02-25T06:33:00.543Z,708
2018-02-25T06:34:01.172Z,732
2018-02-25T06:35:01.030Z,752
2018-02-25T06:36:00.900Z,776
2018-02-25T06:37:00.885Z,800
2018-02-25T06:38:01.266Z,824
2018-02-25T06:39:01.227Z,848
2018-02-25T06:40:01.231Z,872
2018-02-25T06:41:00.983Z,896
2018-02-25T06:42:01.202Z,916
2018-02-25T06:43:01.992Z,940
2018-02-25T06:44:02.118Z,964
2018-02-25T06:45:03.079Z,984
2018-02-25T06:46:02.287Z,1012
2018-02-25T06:47:02.028Z,1032
2018-02-25T06:48:01.812Z,1052
2018-02-25T06:49:01.471Z,1076
2018-02-25T06:50:02.312Z,1100
2018-02-25T06:51:01.795Z,1120
2018-02-25T06:52:02.101Z,1140
2018-02-25T06:53:02.287Z,1164
2018-02-25T06:54:02.773Z,1188
2018-02-25T06:55:02.456Z,1208
2018-02-25T06:56:03.779Z,1228
2018-02-25T06:57:04.375Z,1248
2018-02-25T06:58:03.216Z,1264
2018-02-25T06:59:03.100Z,1284
2018-02-25T07:00:29.045Z,1304
2018-02-25T07:01:03.127Z,1324
2018-02-25T07:02:03.484Z,1344
2018-02-25T07:03:03.204Z,1360
2018-02-25T07:04:03.342Z,1376
2018-02-25T07:05:02.872Z,1396
2018-02-25T07:06:03.569Z,1412
2018-02-25T07:07:03.317Z,1432
2018-02-25T07:08:03.785Z,1452
2018-02-25T07:09:03.960Z,1472
2018-02-25T07:10:04.017Z,1488
2018-02-25T07:11:04.257Z,1504
2018-02-25T07:12:04.688Z,1520
2018-02-25T07:13:04.211Z,1532
2018-02-25T07:14:04.396Z,1552
2018-02-25T07:15:04.301Z,1572
2018-02-25T07:16:04.826Z,1588
2018-02-25T07:17:04.782Z,1604
2018-02-25T07:18:04.023Z,1624
2018-02-25T07:19:04.482Z,1644
2018-02-25T07:20:04.790Z,1668
2018-02-25T07:21:04.426Z,1684
2018-02-25T07:22:04.678Z,1704
2018-02-25T07:23:05.170Z,1724
2018-02-25T07:24:04.506Z,1744
2018-02-25T07:25:04.953Z,1764
2018-02-25T07:26:05.437Z,1788
2018-02-25T07:27:05.127Z,1800
2018-02-25T07:28:04.722Z,1816
2018-02-25T07:29:04.766Z,1836
2018-02-25T07:30:05.793Z,1844
2018-02-25T07:31:06.264Z,1864
2018-02-25T07:32:05.570Z,1884
2018-02-25T07:33:05.211Z,1896
2018-02-25T07:34:05.640Z,1916
2018-02-25T07:35:06.624Z,1948
2018-02-25T07:36:05.718Z,1988
2018-02-25T07:37:06.575Z,2024
2018-02-25T07:38:05.609Z,2032
2018-02-25T07:39:06.249Z,2040
2018-02-25T07:40:06.430Z,2060
2018-02-25T07:41:05.995Z,2088
2018-02-25T07:42:05.631Z,2148
2018-02-25T07:43:06.471Z,2232
2018-02-25T07:44:05.798Z,2320
2018-02-25T07:45:08.008Z,2380
2018-02-25T07:46:07.148Z,2416
2018-02-25T07:47:07.811Z,2456
2018-02-25T07:48:07.047Z,2480
2018-02-25T07:49:06.820Z,2508
2018-02-25T07:50:06.527Z,2856
2018-02-25T07:51:06.846Z,3256
2018-02-25T07:52:06.778Z,3396
2018-02-25T07:53:07.471Z,3752
2018-02-25T07:54:07.076Z,4004
2018-02-25T07:55:07.328Z,3964
2018-02-25T07:56:07.291Z,4356
2018-02-25T07:57:07.408Z,4604
2018-02-25T07:58:06.987Z,4360
2018-02-25T07:59:07.054Z,4116
2018-02-25T08:00:20.005Z,4224
2018-02-25T08:01:07.064Z,4080
2018-02-25T08:02:07.317Z,3960
2018-02-25T08:03:07.360Z,3952
2018-02-25T08:04:07.460Z,3664
2018-02-25T08:05:08.257Z,3468
2018-02-25T08:06:08.172Z,3712
2018-02-25T08:07:08.257Z,3792
2018-02-25T08:08:08.677Z,4000
2018-02-25T08:09:08.531Z,4484
2018-02-25T08:10:08.747Z,4888
2018-02-25T08:11:08.934Z,4952
2018-02-25T08:12:08.720Z,4804
2018-02-25T08:13:08.749Z,4820
2018-02-25T08:14:08.882Z,5276
2018-02-25T08:15:09.400Z,5680
2018-02-25T08:16:09.390Z,5732
2018-02-25T08:17:09.110Z,5408
2018-02-25T08:18:09.342Z,5128
2018-02-25T08:19:09.460Z,5112
2018-02-25T08:20:10.015Z,5140
2018-02-25T08:21:10.214Z,5268
2018-02-25T08:22:10.043Z,5276
2018-02-25T08:23:10.489Z,5140
2018-02-25T08:24:10.477Z,5060
2018-02-25T08:25:10.492Z,5184
2018-02-25T08:26:10.363Z,5488
2018-02-25T08:27:10.803Z,5972
2018-02-25T08:28:10.537Z,6512
2018-02-25T08:29:10.529Z,6980
2018-02-25T08:30:10.494Z,7236
2018-02-25T08:31:11.227Z,7312
2018-02-25T08:32:11.675Z,7460
2018-02-25T08:33:11.661Z,7332
2018-02-25T08:34:11.857Z,7220
2018-02-25T08:35:11.936Z,6904
2018-02-25T08:36:11.856Z,6916
2018-02-25T08:37:12.021Z,7152
2018-02-25T08:38:12.571Z,7376
2018-02-25T08:39:11.806Z,7500
2018-02-25T08:40:12.769Z,7772
2018-02-25T08:41:11.846Z,7812
2018-02-25T08:42:12.638Z,7540
2018-02-25T08:43:12.337Z,7232
2018-02-25T08:44:12.758Z,7008
2018-02-25T08:45:12.838Z,7416
2018-02-25T08:46:12.747Z,8404
2018-02-25T08:47:12.784Z,9320
2018-02-25T08:48:12.301Z,9148
2018-02-25T08:49:14.621Z,8908
2018-02-25T08:50:13.276Z,9108
2018-02-25T08:51:13.509Z,9560
2018-02-25T08:52:13.690Z,9764
2018-02-25T08:53:14.994Z,10028
2018-02-25T08:54:14.370Z,10300
2018-02-25T08:55:14.574Z,10700
2018-02-25T08:56:14.362Z,10968
2018-02-25T08:57:15.198Z,11208
2018-02-25T08:58:15.266Z,11344
2018-02-25T08:59:14.651Z,11024
2018-02-25T09:00:47.036Z,11092
2018-02-25T09:01:47.476Z,11160
2018-02-25T09:02:46.908Z,11472
2018-02-25T09:03:47.345Z,11764
2018-02-25T09:04:47.301Z,11912
2018-02-25T09:05:47.866Z,12288
2018-02-25T09:06:47.510Z,13184
2018-02-25T09:07:47.377Z,14144
2018-02-25T09:08:48.291Z,14400
2018-02-25T09:09:47.783Z,14944
2018-02-25T09:10:48.948Z,15840
2018-02-25T09:11:48.782Z,16608
2018-02-25T09:12:48.667Z,17728
2018-02-25T09:13:48.350Z,19360
2018-02-25T09:14:48.614Z,20928
2018-02-25T09:15:48.737Z,22784
2018-02-25T09:16:49.679Z,25120
2018-02-25T09:17:49.163Z,26784
2018-02-25T09:18:49.049Z,27296
2018-02-25T09:19:49.049Z,28928
2018-02-25T09:20:49.715Z,32224
2018-02-25T09:21:50.099Z,37216
2018-02-25T09:22:50.227Z,43072
2018-02-25T09:23:50.323Z,45312
2018-02-25T09:24:50.790Z,44384
2018-02-25T09:25:50.931Z,41696
2018-02-25T09:26:51.169Z,39200
2018-02-25T09:27:50.433Z,36352
2018-02-25T09:28:51.182Z,34848
2018-02-25T09:29:51.652Z,34336
2018-02-25T09:30:51.096Z,34112
2018-02-25T09:31:51.658Z,33440
2018-02-25T09:32:51.255Z,33152
2018-02-25T09:33:51.524Z,32288
2018-02-25T09:34:51.543Z,32256
2018-02-25T09:35:51.594Z,32544
2018-02-25T09:36:51.677Z,32704
2018-02-25T09:37:51.949Z,31936
2018-02-25T09:38:51.656Z,32832
2018-02-25T09:39:52.064Z,33344
2018-02-25T09:40:52.279Z,33312
2018-02-25T09:41:52.818Z,32480
2018-02-25T09:42:52.769Z,31712
2018-02-25T09:43:53.227Z,31136
2018-02-25T09:44:54.422Z,31648
2018-02-25T09:45:53.577Z,31904
2018-02-25T09:46:54.821Z,32608
2018-02-25T09:47:54.284Z,33376
2018-02-25T09:48:53.980Z,34176
2018-02-25T09:49:53.627Z,34176
2018-02-25T09:50:53.830Z,33920
2018-02-25T09:51:53.949Z,34496
2018-02-25T09:52:54.250Z,34368
2018-02-25T09:53:54.012Z,34336
2018-02-25T09:54:54.316Z,33856
2018-02-25T09:55:54.076Z,34560
2018-02-25T09:56:53.853Z,35968
2018-02-25T09:57:54.106Z,35040
2018-02-25T09:58:54.339Z,34976
2018-02-25T09:59:54.366Z,34624
2018-02-25T10:00:54.843Z,34592
2018-02-25T10:01:54.795Z,34016
2018-02-25T10:02:55.746Z,33536
2018-02-25T10:03:54.236Z,33248
2018-02-25T10:04:54.716Z,33184
2018-02-25T10:05:54.563Z,33664
2018-02-25T10:06:54.476Z,33376
2018-02-25T10:07:54.507Z,33280
2018-02-25T10:08:54.559Z,34368
2018-02-25T10:09:54.862Z,34624
2018-02-25T10:10:54.633Z,35008
2018-02-25T10:11:54.676Z,35008
2018-02-25T10:12:55.069Z,33984
2018-02-25T10:13:54.718Z,34144
2018-02-25T10:14:54.811Z,34144
2018-02-25T10:15:55.524Z,33568
2018-02-25T10:16:55.069Z,34080
2018-02-25T10:17:54.790Z,33888
2018-02-25T10:18:55.584Z,33952
2018-02-25T10:19:55.065Z,34560
2018-02-25T10:20:55.277Z,34336
2018-02-25T10:21:55.061Z,33472
2018-02-25T10:22:54.966Z,33984
2018-02-25T10:23:55.240Z,35328
2018-02-25T10:24:55.970Z,35744
2018-02-25T10:25:55.465Z,35616
2018-02-25T10:26:55.840Z,36704
2018-02-25T10:27:56.239Z,36768
2018-02-25T10:28:56.921Z,36928
2018-02-25T10:29:57.018Z,36672
2018-02-25T10:30:57.016Z,36480
2018-02-25T10:31:57.042Z,34880
2018-02-25T10:32:57.505Z,33344
2018-02-25T10:33:57.261Z,30816
2018-02-25T10:34:57.847Z,34592
2018-02-25T10:35:57.482Z,34528
2018-02-25T10:36:58.169Z,34656
2018-02-25T10:37:57.888Z,34240
2018-02-25T10:38:58.315Z,34848
2018-02-25T10:39:57.743Z,33920
2018-02-25T10:40:58.744Z,33792
2018-02-25T10:41:58.538Z,33568
2018-02-25T10:42:58.350Z,33472
2018-02-25T10:43:58.293Z,32608
2018-02-25T10:44:58.638Z,33856
2018-02-25T10:45:58.607Z,34688
2018-02-25T10:46:58.696Z,35296
2018-02-25T10:47:58.664Z,35904
2018-02-25T10:48:59.196Z,30560
2018-02-25T10:49:58.810Z,15008
2018-02-25T10:50:59.140Z,8428
2018-02-25T10:51:59.275Z,7548
2018-02-25T10:52:59.132Z,7100
2018-02-25T10:53:59.446Z,6760
2018-02-25T10:54:59.936Z,6532
2018-02-25T10:55:59.230Z,6332
2018-02-25T10:56:59.696Z,6300
2018-02-25T10:57:59.818Z,6376
2018-02-25T10:58:59.992Z,6624
2018-02-25T11:01:00.791Z,6496
2018-02-25T11:02:00.684Z,6280
2018-02-25T11:03:00.786Z,6192
2018-02-25T11:04:01.048Z,6128
2018-02-25T11:05:01.101Z,5888
2018-02-25T11:06:01.168Z,5668
2018-02-25T11:07:01.190Z,5444
2018-02-25T11:08:01.259Z,5312
2018-02-25T11:09:01.188Z,5288
2018-02-25T11:10:01.654Z,5196
2018-02-25T11:11:02.236Z,5064
2018-02-25T11:12:01.671Z,4920
2018-02-25T11:13:01.433Z,4836
2018-02-25T11:14:01.787Z,4716
2018-02-25T11:15:02.119Z,4632
2018-02-25T11:16:02.566Z,4568
2018-02-25T11:17:02.644Z,4460
2018-02-25T11:18:03.654Z,4356
2018-02-25T11:19:03.525Z,4308
2018-02-25T11:20:03.760Z,4308
2018-02-25T11:21:03.915Z,4304
2018-02-25T11:22:03.588Z,4348
2018-02-25T11:23:04.092Z,4320
2018-02-25T11:24:04.003Z,4304
2018-02-25T11:25:04.668Z,4180
2018-02-25T11:26:04.835Z,4108
2018-02-25T11:27:07.745Z,4024
2018-02-25T11:28:04.740Z,4024
2018-02-25T11:29:04.490Z,4048
2018-02-25T11:30:05.068Z,4044
2018-02-25T11:31:04.716Z,4024
2018-02-25T11:32:05.331Z,4016
2018-02-25T11:33:06.797Z,3964
2018-02-25T11:34:06.294Z,3912
2018-02-25T11:35:05.960Z,3824
2018-02-25T11:36:05.599Z,3504
2018-02-25T11:37:05.957Z,3584
2018-02-25T11:38:06.313Z,3516
2018-02-25T11:39:06.303Z,3504
2018-02-25T11:40:06.154Z,3576
2018-02-25T11:41:05.828Z,3664
2018-02-25T11:42:06.484Z,3768
2018-02-25T11:43:06.501Z,3768
2018-02-25T11:44:05.963Z,4032
2018-02-25T11:45:08.175Z,4400
2018-02-25T11:46:06.518Z,4060
2018-02-25T11:47:06.871Z,3496
2018-02-25T11:48:06.743Z,4368
2018-02-25T11:49:06.630Z,4688
2018-02-25T11:50:07.186Z,4524
2018-02-25T11:51:07.006Z,3480
2018-02-25T11:52:06.778Z,3712
2018-02-25T11:53:06.756Z,3844
2018-02-25T11:54:06.782Z,3944
2018-02-25T11:55:06.891Z,4152
2018-02-25T11:56:06.861Z,4056
2018-02-25T11:57:06.607Z,3996
2018-02-25T11:58:07.168Z,3748
2018-02-25T11:59:07.176Z,3764
2018-02-25T12:00:38.402Z,3892
2018-02-25T12:01:09.889Z,4076
2018-02-25T12:02:09.153Z,4032
2018-02-25T12:03:07.238Z,3964
2018-02-25T12:04:07.143Z,3584
2018-02-25T12:05:07.758Z,3596
2018-02-25T12:06:07.734Z,3420
2018-02-25T12:07:07.938Z,3520
2018-02-25T12:08:07.745Z,3256
2018-02-25T12:09:07.931Z,3084
2018-02-25T12:10:08.710Z,3112
2018-02-25T12:11:07.828Z,3292
2018-02-25T12:12:08.573Z,3088
2018-02-25T12:13:09.346Z,3088
2018-02-25T12:14:08.788Z,2840
2018-02-25T12:15:10.601Z,2752
2018-02-25T12:16:09.908Z,3160
2018-02-25T12:17:10.459Z,3296
2018-02-25T12:18:10.392Z,3444
2018-02-25T12:19:11.014Z,3264
2018-02-25T12:20:11.169Z,3048
2018-02-25T12:21:12.677Z,3424
2018-02-25T12:22:12.629Z,2932
2018-02-25T12:23:12.694Z,3124
2018-02-25T12:24:12.347Z,3220
2018-02-25T12:25:12.626Z,2920
2018-02-25T12:26:12.856Z,2760
2018-02-25T12:27:13.110Z,2700
2018-02-25T12:28:13.850Z,2456
2018-02-25T12:29:13.272Z,2452
2018-02-25T12:30:13.454Z,2532
2018-02-25T12:31:13.457Z,2440
2018-02-25T12:32:13.667Z,2616
2018-02-25T12:33:13.712Z,2552
2018-02-25T12:34:13.988Z,2432
2018-02-25T12:35:13.463Z,2608
2018-02-25T12:36:13.918Z,2588
2018-02-25T12:37:13.972Z,2624
2018-02-25T12:38:13.883Z,2712
2018-02-25T12:39:14.804Z,2792
2018-02-25T12:40:14.764Z,2880
2018-02-25T12:41:15.390Z,2864
2018-02-25T12:42:15.911Z,2708
2018-02-25T12:43:15.450Z,2676
2018-02-25T12:44:15.629Z,2608
2018-02-25T12:45:15.585Z,2652
2018-02-25T12:46:14.878Z,2596
2018-02-25T12:47:15.683Z,2552
2018-02-25T12:48:14.724Z,2532
2018-02-25T12:49:15.932Z,2528
2018-02-25T12:50:15.851Z,2524
2018-02-25T12:51:14.997Z,2520
2018-02-25T12:52:14.874Z,2448
2018-02-25T12:53:15.243Z,2468
2018-02-25T12:54:15.962Z,2472
2018-02-25T12:55:16.208Z,2524
2018-02-25T12:56:15.387Z,2572
2018-02-25T12:57:15.948Z,2632
2018-02-25T12:58:15.579Z,2712
2018-02-25T12:59:15.166Z,2768
2018-02-25T13:00:28.784Z,2720
2018-02-25T13:01:17.745Z,2608
2018-02-25T13:02:17.057Z,2576
2018-02-25T13:03:15.100Z,2592
2018-02-25T13:04:15.082Z,2552
2018-02-25T13:05:15.075Z,2412
2018-02-25T13:06:14.731Z,2408
2018-02-25T13:07:14.841Z,2444
2018-02-25T13:08:15.439Z,2576
2018-02-25T13:09:15.729Z,2728
2018-02-25T13:10:15.455Z,2908
2018-02-25T13:11:16.219Z,2968
2018-02-25T13:12:16.105Z,3200
2018-02-25T13:13:16.196Z,3236
2018-02-25T13:14:17.186Z,3096
2018-02-25T13:15:18.347Z,3136
2018-02-25T13:16:17.032Z,2972
2018-02-25T13:17:16.765Z,2944
2018-02-25T13:18:16.849Z,2932
2018-02-25T13:19:16.592Z,2832
2018-02-25T13:20:17.433Z,2624
2018-02-25T13:21:16.685Z,2548
2018-02-25T13:22:17.107Z,2348
2018-02-25T13:23:17.354Z,2288
2018-02-25T13:24:17.505Z,2184
2018-02-25T13:25:18.003Z,2004
2018-02-25T13:26:17.991Z,1996
2018-02-25T13:27:18.522Z,1968
2018-02-25T13:28:19.584Z,1992
2018-02-25T13:29:18.911Z,2016
2018-02-25T13:30:19.711Z,2080
2018-02-25T13:31:19.393Z,2152
2018-02-25T13:32:19.792Z,2164
2018-02-25T13:33:19.667Z,2220
2018-02-25T13:34:20.201Z,2316
2018-02-25T13:35:19.966Z,2332
2018-02-25T13:36:20.190Z,2296
2018-02-25T13:37:20.149Z,2176
2018-02-25T13:38:20.822Z,2124
2018-02-25T13:39:21.225Z,2172
2018-02-25T13:40:22.442Z,2164
2018-02-25T13:41:21.887Z,2152
2018-02-25T13:42:21.238Z,2192
2018-02-25T13:43:21.659Z,2112
2018-02-25T13:44:21.734Z,2076
2018-02-25T13:45:21.166Z,2056
2018-02-25T13:46:22.196Z,1968
2018-02-25T13:47:22.418Z,1940
2018-02-25T13:48:21.748Z,1976
2018-02-25T13:49:22.626Z,2068
2018-02-25T13:50:22.507Z,2092
2018-02-25T13:51:22.304Z,2040
2018-02-25T13:52:22.245Z,1952
2018-02-25T13:53:22.516Z,1912
2018-02-25T13:54:22.557Z,1856
2018-02-25T13:55:22.282Z,1836